Airfield :
LOGIN :

Register | Disclaimer

   EN    FR    IT 

 










Legend :    VFR   Marginal VFR   IFR   Intensive IFR   Very Intensive IFR
Visi :
Ceiling :
>= 8 km
>= 3000ft
5 to 8 km
1000 to 3000 ft
1500m to 5 km
500 to 1000 ft
800 to 1500m
200 to 500 ft
< 800m
< 200 ft
Symbols :   Thunderstorms  Fog  Heavy snow  Heavy precipitations  Wind > 20 kt
SIGMETs :     Misc.  Thunderstorms  Icing  Turbulence  Mountain Waves  Volcanic Ashes






- Airport Elevation : 142 ft
- IATA code : ALC


LEAL - Alicante

CURRENT METAR :
  • 200430Z 03005KT CAVOK 15/13 Q1014 NOSIG

EXPIRED METARs :
  • 200400Z 03005KT CAVOK 15/13 Q1014 NOSIG
  • 200330Z 04006KT CAVOK 15/13 Q1014 NOSIG
  • 200300Z 09006KT CAVOK 15/13 Q1014 NOSIG
  • 200230Z VRB01KT CAVOK 14/12 Q1014 NOSIG
  • 200200Z VRB02KT CAVOK 15/12 Q1013 NOSIG

TAF TAF LEAL
Valid from the 20 at 00:00 until the 21 at 00:00 UTC


192300Z 2000/2024 VRB04KT 9999 FEW030 TX19/2012Z TN13/2005Z
PROB30
TEMPO 2002/2005 02010KT
BECMG 2007/2010 10010KT
PROB40
TEMPO 2012/2018 FEW035CB
PROB30
TEMPO 2012/2018 4000 TSRA FEW040CB



MET'MAP, your aeronautical weather chart ! - Copyright ORBIFLY December 2007 - Disclaimer

ORBIFLY MET'MAP TEAM :

Programming & Development : Alexandra Zaïnal
Concept & original design : Baudouin d'Aumeries
Assistance for programming : Marc-Olivier Méhu
Technical & hardware support : Manuel Goepfert

Contact : metmap@orbifly.com




SOURCES & CREDITS :

   NOAA